• Join FlightAware (Why Join?)
  • Login
  • US Flag 
05:26PM EDT


 

Airport Tracker/Info


-or-


 

Live Flight TrackerFlight Track Log ✈ LOF3357 ✈ 17-May-2013 ✈ KIAD - KSTL

Flight Track Log - Related Links

Times and Time Zones

All times are in EDT time to prevent confusion due to time zone crossing. See the LOF3357 flight status page for this flight to view local times or setup timezone preferences in your user account.

Time Position Orientation Groundspeed Altitude Reporting Facility
EDT Latitude Longitude Course Direction KTS MPH feet Rate Location/Type
10:18PM 38.9000 -77.4833 270° West 196 226 2,600  Level Potomac TRACON
10:19PM 38.8833 -77.5500 252° West 243 280 4,500 1,860 Climbing Potomac TRACON
10:20PM 38.8772 -77.6394 265° West 266 306 6,300 1,740 Climbing Washington Center
10:21PM 38.8736 -77.7247 267° West 272 313 8,000 1,860 Climbing Washington Center
10:22PM 38.8822 -77.8289 276° West 272 313 10,100 1,680 Climbing Washington Center
10:23PM 38.8889 -77.9172 276° West 278 320 11,400 1,140 Climbing Washington Center
10:24PM 38.9500 -78.2132 270° West  Level FlightAware Approximate
10:24PM 38.8992 -78.0242 277° West 288 331 12,400  Level Washington Center
10:25PM 38.9117 -78.1342 278° West 306 352 13,400 900 Climbing Washington Center
10:26PM 38.9233 -78.2600 277° West 319 367 14,300 960 Climbing Washington Center
10:27PM 38.9333 -78.3697 277° West 331 381 15,300 900 Climbing Washington Center
10:28PM 38.9453 -78.4875 277° West 336 387 16,200 900 Climbing Washington Center
10:29PM 38.9567 -78.6133 277° West 331 381 17,200 840 Climbing Washington Center
10:30PM 38.9686 -78.7208 278° West 331 381 18,000 840 Climbing Washington Center
10:31PM 38.9781 -78.8386 276° West 336 387 19,000 960 Climbing Washington Center
10:32PM 38.9847 -78.9697 274° West 342 394 19,900 900 Climbing Washington Center
10:33PM 38.9858 -79.0819 271° West 347 399 20,900 960 Climbing Washington Center
10:34PM 38.9883 -79.2022 272° West 347 399 21,900 960 Climbing Washington Center
10:35PM 38.9908 -79.3253 272° West 347 399 22,900 900 Climbing Washington Center
10:36PM 38.9975 -79.4458 274° West 347 399 23,800 900 Climbing Washington Center
10:37PM 39.0000 -79.5636 272° West 347 399 24,800 960 Climbing Washington Center
10:38PM 39.0000 -79.6892 270° West 347 399 25,700 840 Climbing Washington Center
10:39PM 39.0022 -79.8067 271° West 347 399 26,600 1,020 Climbing Washington Center
10:40PM 39.0061 -79.9300 272° West 335 386 27,800 1,020 Climbing Washington Center
10:42PM 39.0044 -80.0942 269° West 317 365 29,200 900 Climbing Indianapolis Center
10:43PM 39.0056 -80.2053 271° West 313 360 30,200 780 Climbing Indianapolis Center
10:44PM 39.0086 -80.3139 272° West 308 354 30,900 600 Climbing Indianapolis Center
10:45PM 39.0131 -80.4253 273° West 311 358 31,500 540 Climbing Indianapolis Center
10:46PM 39.0231 -80.5375 277° West 317 365 32,000 240 Climbing Indianapolis Center
10:47PM 39.0331 -80.6547 276° West 328 377 32,000  Level Indianapolis Center
10:48PM 39.0431 -80.7792 276° West 347 399 32,000  Level Indianapolis Center
10:49PM 39.0536 -80.9108 276° West 369 425 32,000  Level Indianapolis Center
10:50PM 39.0636 -81.0467 275° West 381 438 32,000  Level Indianapolis Center
10:51PM 39.0778 -81.2153 276° West 399 459 32,000  Level Indianapolis Center
10:52PM 39.0878 -81.3575 275° West 403 464 32,000  Level Indianapolis Center
10:53PM 39.0997 -81.5022 276° West 410 472 32,000  Level Indianapolis Center
10:54PM 39.1094 -81.6481 275° West 413 475 32,000  Level Indianapolis Center
10:55PM 39.1197 -81.7967 275° West 418 481 32,000  Level Indianapolis Center
10:56PM 39.1303 -81.9453 275° West 421 484 32,000  Level Indianapolis Center
10:57PM 39.1403 -82.0942 275° West 419 482 32,000  Level Indianapolis Center
10:58PM 39.1497 -82.2439 275° West 422 486 32,000  Level Indianapolis Center
10:59PM 39.1603 -82.3939 275° West 423 487 32,000  Level Indianapolis Center
11:00PM 39.1692 -82.5453 274° West 426 490 32,000  Level Indianapolis Center
11:01PM 39.1789 -82.7019 275° West 422 486 32,000  Level Indianapolis Center
11:02PM 39.1894 -82.8542 275° West 422 486 32,000  Level Indianapolis Center
11:03PM 39.1992 -83.0331 274° West 423 487 32,000  Level Indianapolis Center
11:04PM 39.2081 -83.1867 274° West 426 490 32,000  Level Indianapolis Center
11:05PM 39.2172 -83.3394 274° West 423 487 32,000  Level Indianapolis Center
11:06PM 39.2256 -83.4922 274° West 423 487 32,000  Level Indianapolis Center
11:07PM 39.2342 -83.6447 274° West 422 486 32,000  Level Indianapolis Center
11:08PM 39.2425 -83.7978 274° West 422 486 32,000  Level Indianapolis Center
11:09PM 39.2508 -83.9514 274° West 423 487 32,000  Level Indianapolis Center
11:10PM 39.2586 -84.1042 274° West 422 486 32,000  Level Indianapolis Center
11:11PM 39.2661 -84.2567 274° West 421 484 32,000  Level Indianapolis Center
11:12PM 39.2733 -84.4103 274° West 423 487 32,000  Level Indianapolis Center
11:13PM 39.2811 -84.5625 274° West 422 486 32,000  Level Indianapolis Center
11:14PM 39.2875 -84.7169 273° West 426 490 32,000  Level Indianapolis Center
11:15PM 39.2950 -84.8703 274° West 424 488 32,000  Level Indianapolis Center
11:16PM 39.3008 -85.0186 273° West 427 491 32,000  Level Indianapolis Center
11:17PM 39.3083 -85.1725 274° West 429 494 32,000  Level Indianapolis Center
11:18PM 39.3139 -85.3278 273° West 432 497 32,000  Level Indianapolis Center
11:19PM 39.3200 -85.4831 273° West 434 499 32,000  Level Indianapolis Center
11:20PM 39.3258 -85.6381 273° West 433 498 32,000  Level Indianapolis Center
11:21PM 39.3311 -85.7925 273° West 430 495 32,000  Level Indianapolis Center
11:22PM 39.3372 -85.9475 273° West 431 496 32,000  Level Indianapolis Center
11:23PM 39.3417 -86.1033 272° West 432 497 32,000  Level Indianapolis Center
11:24PM 39.3475 -86.2589 273° West 430 495 32,000  Level Indianapolis Center
11:25PM 39.3519 -86.4150 272° West 432 497 32,000  Level Indianapolis Center
11:26PM 39.3567 -86.5703 272° West 431 496 32,000  Level Indianapolis Center
11:27PM 39.3614 -86.7256 272° West 431 496 32,000  Level Indianapolis Center
11:28PM 39.3656 -86.8803 272° West 430 495 32,000 -180 Level Indianapolis Center
11:29PM 39.3708 -87.0667 272° West 431 496 31,700 -420 Descending Indianapolis Center
11:30PM 39.3747 -87.2231 272° West 436 502 31,200 -540 Descending Indianapolis Center
11:31PM 39.3789 -87.3808 272° West 439 505 30,700 -540 Descending Indianapolis Center
11:32PM 39.3806 -87.5392 271° West 442 509 30,200 -360 Descending Indianapolis Center
11:33PM 39.3844 -87.6961 272° West 438 504 30,000 -120 Descending Indianapolis Center
11:35PM 39.3881 -87.8533 272° West 439 505 30,000  Level Indianapolis Center
11:35PM 39.3903 -87.9897 271° West 436 502 30,000  Level Kansas City Center
11:37PM 39.3658 -88.1397 258° West 435 501 30,000  Level Kansas City Center
11:38PM 39.3281 -88.2844 251° West 432 497 30,000 -480 Level Kansas City Center
11:39PM 39.2814 -88.4603 251° West 430 495 29,100 -1,440 Descending Kansas City Center
11:40PM 39.2422 -88.6089 251° West 434 499 27,100 -1,740 Descending Kansas City Center
11:41PM 39.1994 -88.7625 250° West 442 509 25,600 -1,500 Descending Kansas City Center
11:42PM 39.1600 -88.9086 251° West 438 504 24,100 -1,560 Descending Kansas City Center
11:43PM 39.1158 -89.0664 250° West 437 503 22,500 -1,560 Descending Kansas City Center
11:44PM 39.0775 -89.2086 251° West 424 488 21,000 -1,500 Descending Kansas City Center
11:45PM 39.0394 -89.3472 251° West 414 476 19,500 -1,440 Descending Kansas City Center
11:46PM 39.0011 -89.4822 250° West 406 467 18,100 -1,380 Descending Kansas City Center
11:47PM 38.9594 -89.6294 250° West 409 471 16,800 -1,080 Descending Kansas City Center
11:48PM 38.9233 -89.7622 251° West 399 459 16,000 -960 Descending Kansas City Center
11:49PM 38.8914 -89.8719 250° West 389 448 14,900 -1,560 Descending Kansas City Center
11:50PM 38.8764 -90.0050 262° West 381 438 12,900 -1,920 Descending Kansas City Center
11:51PM 38.8744 -90.1317 269° West 364 419 11,000 -1,920 Descending Kansas City Center
11:52PM 38.8731 -90.2581 269° West 317 365 9,100 -2,460 Descending Kansas City Center
11:53PM 38.8708 -90.3522 268° West 284 327 6,100 -2,880 Descending Kansas City Center
11:53PM 38.8667 -90.4167 265° West 260 299 4,300 -2,400 Descending Gateway (St. Louis) TRACON
11:54PM 38.8497 -90.4294 210° Southwest 274 315 3,700 -1,320 Descending Kansas City Center
11:55PM 38.7992 -90.4486 196° South 217 250 2,500 -1,200 Descending Kansas City Center
11:56PM 38.7750 -90.4139 132° Southeast 161 185 1,400 -900 Descending Kansas City Center
11:57PM 38.7561 -90.3756 122° Southeast 138 159 700 -720 Descending Kansas City Center
11:59PM 38.7487 -90.3700 159° South  Level Estimated